sensor_id;sensor_type;location;lat;lon;timestamp;temperature;humidity
13521;DHT22;6832;51.186;3.236;2023-03-23T00:02:23;17.70;63.10
13521;DHT22;6832;51.186;3.236;2023-03-23T00:04:52;17.70;63.20
13521;DHT22;6832;51.186;3.236;2023-03-23T00:07:19;17.70;63.20
13521;DHT22;6832;51.186;3.236;2023-03-23T00:09:47;17.80;63.40
13521;DHT22;6832;51.186;3.236;2023-03-23T00:12:19;17.70;63.30
13521;DHT22;6832;51.186;3.236;2023-03-23T00:14:48;17.60;63.20
13521;DHT22;6832;51.186;3.236;2023-03-23T00:17:19;17.70;63.10
13521;DHT22;6832;51.186;3.236;2023-03-23T00:19:55;17.70;63.20
13521;DHT22;6832;51.186;3.236;2023-03-23T00:22:22;17.70;63.10
13521;DHT22;6832;51.186;3.236;2023-03-23T00:24:50;17.60;63.10
13521;DHT22;6832;51.186;3.236;2023-03-23T00:27:18;17.60;63.10
13521;DHT22;6832;51.186;3.236;2023-03-23T00:29:49;17.60;63.10
13521;DHT22;6832;51.186;3.236;2023-03-23T00:32:24;17.70;63.20
13521;DHT22;6832;51.186;3.236;2023-03-23T00:34:55;17.70;63.20
13521;DHT22;6832;51.186;3.236;2023-03-23T00:37:24;17.60;63.10
13521;DHT22;6832;51.186;3.236;2023-03-23T00:39:51;17.60;63.10
13521;DHT22;6832;51.186;3.236;2023-03-23T00:42:23;17.70;63.20
13521;DHT22;6832;51.186;3.236;2023-03-23T00:44:51;17.70;63.20
13521;DHT22;6832;51.186;3.236;2023-03-23T00:47:26;17.60;63.10
13521;DHT22;6832;51.186;3.236;2023-03-23T00:49:53;17.60;63.10
13521;DHT22;6832;51.186;3.236;2023-03-23T00:52:22;17.60;63.10
13521;DHT22;6832;51.186;3.236;2023-03-23T00:54:48;17.60;63.10
13521;DHT22;6832;51.186;3.236;2023-03-23T00:57:17;17.60;63.90
13521;DHT22;6832;51.186;3.236;2023-03-23T00:59:44;17.70;63.20
13521;DHT22;6832;51.186;3.236;2023-03-23T01:02:12;17.70;63.20
13521;DHT22;6832;51.186;3.236;2023-03-23T01:04:39;17.60;63.10
13521;DHT22;6832;51.186;3.236;2023-03-23T01:07:27;17.60;63.10
13521;DHT22;6832;51.186;3.236;2023-03-23T01:09:56;17.60;63.10
13521;DHT22;6832;51.186;3.236;2023-03-23T01:12:26;17.60;63.10
13521;DHT22;6832;51.186;3.236;2023-03-23T01:14:53;17.60;63.20
13521;DHT22;6832;51.186;3.236;2023-03-23T01:20:19;17.60;63.10
13521;DHT22;6832;51.186;3.236;2023-03-23T01:22:48;17.60;63.10
13521;DHT22;6832;51.186;3.236;2023-03-23T01:25:15;17.60;63.10
13521;DHT22;6832;51.186;3.236;2023-03-23T01:27:42;17.60;63.10
13521;DHT22;6832;51.186;3.236;2023-03-23T01:30:11;17.60;63.10
13521;DHT22;6832;51.186;3.236;2023-03-23T01:32:39;17.60;63.20
13521;DHT22;6832;51.186;3.236;2023-03-23T01:35:06;17.70;63.30
13521;DHT22;6832;51.186;3.236;2023-03-23T01:37:41;17.60;64.00
13521;DHT22;6832;51.186;3.236;2023-03-23T01:40:08;17.60;63.10
13521;DHT22;6832;51.186;3.236;2023-03-23T01:42:37;17.70;63.20
13521;DHT22;6832;51.186;3.236;2023-03-23T01:45:27;17.70;63.20
13521;DHT22;6832;51.186;3.236;2023-03-23T01:48:01;17.60;63.10
13521;DHT22;6832;51.186;3.236;2023-03-23T01:50:33;17.60;63.10
13521;DHT22;6832;51.186;3.236;2023-03-23T01:53:05;17.60;63.10
13521;DHT22;6832;51.186;3.236;2023-03-23T01:55:34;17.60;63.10
13521;DHT22;6832;51.186;3.236;2023-03-23T01:58:06;17.60;63.10
13521;DHT22;6832;51.186;3.236;2023-03-23T02:00:33;17.60;63.10
13521;DHT22;6832;51.186;3.236;2023-03-23T02:03:01;17.60;63.10
13521;DHT22;6832;51.186;3.236;2023-03-23T02:05:30;17.60;63.10
13521;DHT22;6832;51.186;3.236;2023-03-23T02:08:01;17.60;63.20
13521;DHT22;6832;51.186;3.236;2023-03-23T02:10:32;17.60;63.10
13521;DHT22;6832;51.186;3.236;2023-03-23T02:13:03;17.60;63.10
13521;DHT22;6832;51.186;3.236;2023-03-23T02:15:36;17.70;63.20
13521;DHT22;6832;51.186;3.236;2023-03-23T02:18:09;17.60;63.20
13521;DHT22;6832;51.186;3.236;2023-03-23T02:21:19;17.60;63.10
13521;DHT22;6832;51.186;3.236;2023-03-23T02:26:49;17.60;63.20
13521;DHT22;6832;51.186;3.236;2023-03-23T02:32:48;17.60;63.10
13521;DHT22;6832;51.186;3.236;2023-03-23T02:35:24;17.60;63.10
13521;DHT22;6832;51.186;3.236;2023-03-23T02:37:58;17.60;63.10
13521;DHT22;6832;51.186;3.236;2023-03-23T02:40:30;17.60;63.10
13521;DHT22;6832;51.186;3.236;2023-03-23T02:43:07;17.60;63.10
13521;DHT22;6832;51.186;3.236;2023-03-23T02:45:36;17.60;63.10
13521;DHT22;6832;51.186;3.236;2023-03-23T02:48:06;17.60;63.20
13521;DHT22;6832;51.186;3.236;2023-03-23T02:50:44;17.60;63.20
13521;DHT22;6832;51.186;3.236;2023-03-23T02:53:16;17.60;63.10
13521;DHT22;6832;51.186;3.236;2023-03-23T02:55:46;17.60;63.10
13521;DHT22;6832;51.186;3.236;2023-03-23T02:58:14;17.70;63.20
13521;DHT22;6832;51.186;3.236;2023-03-23T03:00:41;17.60;63.10
13521;DHT22;6832;51.186;3.236;2023-03-23T03:03:12;17.60;63.10
13521;DHT22;6832;51.186;3.236;2023-03-23T03:05:46;17.60;63.10
13521;DHT22;6832;51.186;3.236;2023-03-23T03:08:25;17.60;63.20
13521;DHT22;6832;51.186;3.236;2023-03-23T03:11:00;17.60;63.10
13521;DHT22;6832;51.186;3.236;2023-03-23T03:13:35;17.60;63.10
13521;DHT22;6832;51.186;3.236;2023-03-23T03:16:10;17.60;63.10
13521;DHT22;6832;51.186;3.236;2023-03-23T03:18:41;17.60;63.10
13521;DHT22;6832;51.186;3.236;2023-03-23T03:21:12;17.60;63.10
13521;DHT22;6832;51.186;3.236;2023-03-23T03:23:42;17.50;63.00
13521;DHT22;6832;51.186;3.236;2023-03-23T03:26:15;17.60;63.20
13521;DHT22;6832;51.186;3.236;2023-03-23T03:28:47;17.60;63.10
13521;DHT22;6832;51.186;3.236;2023-03-23T03:31:17;17.60;63.10
13521;DHT22;6832;51.186;3.236;2023-03-23T03:33:47;17.60;63.10
13521;DHT22;6832;51.186;3.236;2023-03-23T03:36:25;17.60;63.10
13521;DHT22;6832;51.186;3.236;2023-03-23T03:38:53;17.60;63.20
13521;DHT22;6832;51.186;3.236;2023-03-23T03:41:22;17.60;63.20
13521;DHT22;6832;51.186;3.236;2023-03-23T03:43:49;17.60;63.10
13521;DHT22;6832;51.186;3.236;2023-03-23T03:46:16;17.60;63.20
13521;DHT22;6832;51.186;3.236;2023-03-23T03:48:43;17.60;63.10
13521;DHT22;6832;51.186;3.236;2023-03-23T03:51:10;17.60;63.20
13521;DHT22;6832;51.186;3.236;2023-03-23T03:53:38;17.60;63.10
13521;DHT22;6832;51.186;3.236;2023-03-23T03:56:06;17.60;63.20
13521;DHT22;6832;51.186;3.236;2023-03-23T03:58:33;17.60;63.10
13521;DHT22;6832;51.186;3.236;2023-03-23T04:01:02;17.60;63.20
13521;DHT22;6832;51.186;3.236;2023-03-23T04:03:29;17.60;63.20
13521;DHT22;6832;51.186;3.236;2023-03-23T04:05:56;17.60;63.10
13521;DHT22;6832;51.186;3.236;2023-03-23T04:08:24;17.50;63.00
13521;DHT22;6832;51.186;3.236;2023-03-23T04:10:53;17.50;63.10
13521;DHT22;6832;51.186;3.236;2023-03-23T04:13:21;17.50;63.00
13521;DHT22;6832;51.186;3.236;2023-03-23T04:16:18;17.60;63.10
13521;DHT22;6832;51.186;3.236;2023-03-23T04:18:46;17.60;63.10
13521;DHT22;6832;51.186;3.236;2023-03-23T04:21:14;17.50;63.00
13521;DHT22;6832;51.186;3.236;2023-03-23T04:23:42;17.50;63.00
13521;DHT22;6832;51.186;3.236;2023-03-23T04:26:27;17.50;63.00
13521;DHT22;6832;51.186;3.236;2023-03-23T04:28:55;17.50;63.00
13521;DHT22;6832;51.186;3.236;2023-03-23T04:31:22;17.50;63.00
13521;DHT22;6832;51.186;3.236;2023-03-23T04:33:51;17.50;63.00
13521;DHT22;6832;51.186;3.236;2023-03-23T04:36:20;17.50;63.00
13521;DHT22;6832;51.186;3.236;2023-03-23T04:38:54;17.50;63.00
13521;DHT22;6832;51.186;3.236;2023-03-23T04:41:23;17.50;63.10
13521;DHT22;6832;51.186;3.236;2023-03-23T04:43:51;17.50;63.80
13521;DHT22;6832;51.186;3.236;2023-03-23T04:46:19;17.50;63.00
13521;DHT22;6832;51.186;3.236;2023-03-23T04:48:47;17.50;63.10
13521;DHT22;6832;51.186;3.236;2023-03-23T04:51:14;17.50;63.10
13521;DHT22;6832;51.186;3.236;2023-03-23T04:53:41;17.50;63.00
13521;DHT22;6832;51.186;3.236;2023-03-23T04:56:08;17.50;63.10
13521;DHT22;6832;51.186;3.236;2023-03-23T04:58:36;17.50;63.10
13521;DHT22;6832;51.186;3.236;2023-03-23T05:01:05;17.50;63.10
13521;DHT22;6832;51.186;3.236;2023-03-23T05:03:32;17.50;63.10
13521;DHT22;6832;51.186;3.236;2023-03-23T05:06:06;17.50;63.10
13521;DHT22;6832;51.186;3.236;2023-03-23T05:08:40;17.50;63.10
13521;DHT22;6832;51.186;3.236;2023-03-23T05:11:07;17.50;63.10
13521;DHT22;6832;51.186;3.236;2023-03-23T05:13:36;17.50;63.10
13521;DHT22;6832;51.186;3.236;2023-03-23T05:16:04;17.50;63.10
13521;DHT22;6832;51.186;3.236;2023-03-23T05:18:32;17.50;63.10
13521;DHT22;6832;51.186;3.236;2023-03-23T05:21:00;17.50;63.10
13521;DHT22;6832;51.186;3.236;2023-03-23T05:23:36;17.60;63.30
13521;DHT22;6832;51.186;3.236;2023-03-23T05:26:03;17.60;63.40
13521;DHT22;6832;51.186;3.236;2023-03-23T05:28:36;17.50;63.20
13521;DHT22;6832;51.186;3.236;2023-03-23T05:31:03;17.60;63.20
13521;DHT22;6832;51.186;3.236;2023-03-23T05:33:31;17.60;63.20
13521;DHT22;6832;51.186;3.236;2023-03-23T05:35:58;17.60;63.20
13521;DHT22;6832;51.186;3.236;2023-03-23T05:38:26;17.60;63.20
13521;DHT22;6832;51.186;3.236;2023-03-23T05:40:53;17.50;63.10
13521;DHT22;6832;51.186;3.236;2023-03-23T05:43:27;17.50;63.10
13521;DHT22;6832;51.186;3.236;2023-03-23T05:45:55;17.50;63.10
13521;DHT22;6832;51.186;3.236;2023-03-23T05:48:26;17.60;63.20
13521;DHT22;6832;51.186;3.236;2023-03-23T05:50:53;17.50;63.10
13521;DHT22;6832;51.186;3.236;2023-03-23T05:53:20;17.60;63.20
13521;DHT22;6832;51.186;3.236;2023-03-23T05:55:47;17.60;63.20
13521;DHT22;6832;51.186;3.236;2023-03-23T05:58:15;17.60;63.20
13521;DHT22;6832;51.186;3.236;2023-03-23T06:00:42;17.60;63.20
13521;DHT22;6832;51.186;3.236;2023-03-23T06:03:11;17.60;63.20
13521;DHT22;6832;51.186;3.236;2023-03-23T06:05:42;17.50;63.10
13521;DHT22;6832;51.186;3.236;2023-03-23T06:08:09;17.60;63.20
13521;DHT22;6832;51.186;3.236;2023-03-23T06:10:36;17.60;63.20
13521;DHT22;6832;51.186;3.236;2023-03-23T06:13:04;17.60;63.10
13521;DHT22;6832;51.186;3.236;2023-03-23T06:15:31;17.60;63.20
13521;DHT22;6832;51.186;3.236;2023-03-23T06:17:59;17.60;63.20
13521;DHT22;6832;51.186;3.236;2023-03-23T06:20:27;17.60;63.20
13521;DHT22;6832;51.186;3.236;2023-03-23T06:22:54;17.50;63.10
13521;DHT22;6832;51.186;3.236;2023-03-23T06:28:26;17.60;63.20
13521;DHT22;6832;51.186;3.236;2023-03-23T06:30:53;17.60;63.10
13521;DHT22;6832;51.186;3.236;2023-03-23T06:33:20;17.60;63.20
13521;DHT22;6832;51.186;3.236;2023-03-23T06:35:49;17.50;63.00
13521;DHT22;6832;51.186;3.236;2023-03-23T06:38:17;17.50;63.00
13521;DHT22;6832;51.186;3.236;2023-03-23T06:40:44;17.50;63.00
13521;DHT22;6832;51.186;3.236;2023-03-23T06:43:12;17.60;63.20
13521;DHT22;6832;51.186;3.236;2023-03-23T06:45:40;17.60;63.10
13521;DHT22;6832;51.186;3.236;2023-03-23T06:48:07;17.50;63.00
13521;DHT22;6832;51.186;3.236;2023-03-23T06:50:34;17.50;63.10
13521;DHT22;6832;51.186;3.236;2023-03-23T06:53:04;17.50;63.00
13521;DHT22;6832;51.186;3.236;2023-03-23T06:55:31;17.60;63.10
13521;DHT22;6832;51.186;3.236;2023-03-23T06:57:58;17.50;63.10
13521;DHT22;6832;51.186;3.236;2023-03-23T07:00:27;17.50;63.10
13521;DHT22;6832;51.186;3.236;2023-03-23T07:02:54;17.50;63.10
13521;DHT22;6832;51.186;3.236;2023-03-23T07:05:21;17.50;63.10
13521;DHT22;6832;51.186;3.236;2023-03-23T07:07:48;17.50;63.00
13521;DHT22;6832;51.186;3.236;2023-03-23T07:10:17;17.50;63.00
13521;DHT22;6832;51.186;3.236;2023-03-23T07:12:44;17.50;63.00
13521;DHT22;6832;51.186;3.236;2023-03-23T07:15:12;17.50;63.00
13521;DHT22;6832;51.186;3.236;2023-03-23T07:17:39;17.50;63.00
13521;DHT22;6832;51.186;3.236;2023-03-23T07:20:08;17.50;63.00
13521;DHT22;6832;51.186;3.236;2023-03-23T07:22:35;17.50;63.00
13521;DHT22;6832;51.186;3.236;2023-03-23T07:25:04;17.50;63.00
13521;DHT22;6832;51.186;3.236;2023-03-23T07:27:35;17.50;63.10
13521;DHT22;6832;51.186;3.236;2023-03-23T07:30:05;17.50;63.00
13521;DHT22;6832;51.186;3.236;2023-03-23T07:32:33;17.50;63.00
13521;DHT22;6832;51.186;3.236;2023-03-23T07:35:01;17.50;63.00
13521;DHT22;6832;51.186;3.236;2023-03-23T07:37:29;17.40;63.00
13521;DHT22;6832;51.186;3.236;2023-03-23T07:39:58;17.50;63.10
13521;DHT22;6832;51.186;3.236;2023-03-23T07:42:26;17.50;63.10
13521;DHT22;6832;51.186;3.236;2023-03-23T07:44:55;17.50;63.10
13521;DHT22;6832;51.186;3.236;2023-03-23T07:47:22;17.40;62.90
13521;DHT22;6832;51.186;3.236;2023-03-23T07:49:49;17.50;63.00
13521;DHT22;6832;51.186;3.236;2023-03-23T07:52:16;17.40;63.00
13521;DHT22;6832;51.186;3.236;2023-03-23T07:54:43;17.40;62.90
13521;DHT22;6832;51.186;3.236;2023-03-23T07:57:10;17.40;63.00
13521;DHT22;6832;51.186;3.236;2023-03-23T07:59:38;17.40;63.00
13521;DHT22;6832;51.186;3.236;2023-03-23T08:02:08;17.60;63.10
13521;DHT22;6832;51.186;3.236;2023-03-23T08:04:35;17.40;63.00
13521;DHT22;6832;51.186;3.236;2023-03-23T08:07:03;17.40;63.00
13521;DHT22;6832;51.186;3.236;2023-03-23T08:09:31;17.40;62.90
13521;DHT22;6832;51.186;3.236;2023-03-23T08:11:58;17.40;62.90
13521;DHT22;6832;51.186;3.236;2023-03-23T08:14:25;17.40;62.90
13521;DHT22;6832;51.186;3.236;2023-03-23T08:16:53;17.40;63.00
13521;DHT22;6832;51.186;3.236;2023-03-23T08:19:23;17.50;63.10
13521;DHT22;6832;51.186;3.236;2023-03-23T08:21:51;17.50;63.00
13521;DHT22;6832;51.186;3.236;2023-03-23T08:24:38;17.40;62.90
13521;DHT22;6832;51.186;3.236;2023-03-23T08:27:20;17.40;62.90
13521;DHT22;6832;51.186;3.236;2023-03-23T08:29:48;17.40;62.90
13521;DHT22;6832;51.186;3.236;2023-03-23T08:32:31;17.50;63.00
13521;DHT22;6832;51.186;3.236;2023-03-23T08:35:00;17.50;63.00
13521;DHT22;6832;51.186;3.236;2023-03-23T08:37:28;17.40;62.90
13521;DHT22;6832;51.186;3.236;2023-03-23T08:39:56;17.40;62.90
13521;DHT22;6832;51.186;3.236;2023-03-23T08:42:23;17.50;63.00
13521;DHT22;6832;51.186;3.236;2023-03-23T08:44:51;17.40;62.90
13521;DHT22;6832;51.186;3.236;2023-03-23T08:47:18;17.40;62.90
13521;DHT22;6832;51.186;3.236;2023-03-23T08:49:45;17.40;62.90
13521;DHT22;6832;51.186;3.236;2023-03-23T08:52:26;17.50;63.10
13521;DHT22;6832;51.186;3.236;2023-03-23T08:55:30;17.60;63.20
13521;DHT22;6832;51.186;3.236;2023-03-23T08:58:14;17.60;63.20
13521;DHT22;6832;51.186;3.236;2023-03-23T09:00:41;17.50;63.10
13521;DHT22;6832;51.186;3.236;2023-03-23T09:03:08;17.50;63.10
13521;DHT22;6832;51.186;3.236;2023-03-23T09:05:39;17.50;63.10
13521;DHT22;6832;51.186;3.236;2023-03-23T09:08:12;17.50;63.10
13521;DHT22;6832;51.186;3.236;2023-03-23T09:10:40;17.50;63.20
13521;DHT22;6832;51.186;3.236;2023-03-23T09:13:07;17.50;63.10
13521;DHT22;6832;51.186;3.236;2023-03-23T09:15:34;17.50;63.10
13521;DHT22;6832;51.186;3.236;2023-03-23T09:18:02;17.50;63.10
13521;DHT22;6832;51.186;3.236;2023-03-23T09:20:31;17.50;63.20
13521;DHT22;6832;51.186;3.236;2023-03-23T09:22:58;17.60;63.40
13521;DHT22;6832;51.186;3.236;2023-03-23T09:25:31;17.60;63.40
13521;DHT22;6832;51.186;3.236;2023-03-23T09:27:58;17.60;63.40
13521;DHT22;6832;51.186;3.236;2023-03-23T09:30:27;17.60;63.40
13521;DHT22;6832;51.186;3.236;2023-03-23T09:32:55;17.60;63.40
13521;DHT22;6832;51.186;3.236;2023-03-23T09:35:22;17.60;63.40
13521;DHT22;6832;51.186;3.236;2023-03-23T09:37:51;17.60;63.40
13521;DHT22;6832;51.186;3.236;2023-03-23T09:40:22;17.60;63.50
13521;DHT22;6832;51.186;3.236;2023-03-23T09:43:06;17.60;63.40
13521;DHT22;6832;51.186;3.236;2023-03-23T09:45:40;17.70;63.60
13521;DHT22;6832;51.186;3.236;2023-03-23T09:48:33;17.60;63.40
13521;DHT22;6832;51.186;3.236;2023-03-23T09:51:11;17.70;63.60
13521;DHT22;6832;51.186;3.236;2023-03-23T09:53:42;17.60;63.40
13521;DHT22;6832;51.186;3.236;2023-03-23T09:56:12;17.70;63.50
13521;DHT22;6832;51.186;3.236;2023-03-23T09:58:48;17.80;63.60
13521;DHT22;6832;51.186;3.236;2023-03-23T10:01:20;17.70;63.60
13521;DHT22;6832;51.186;3.236;2023-03-23T10:03:49;17.80;63.60
13521;DHT22;6832;51.186;3.236;2023-03-23T10:06:19;17.70;63.50
13521;DHT22;6832;51.186;3.236;2023-03-23T10:08:51;17.70;63.50
13521;DHT22;6832;51.186;3.236;2023-03-23T10:11:26;17.80;63.60
13521;DHT22;6832;51.186;3.236;2023-03-23T10:14:10;17.80;63.60
13521;DHT22;6832;51.186;3.236;2023-03-23T10:16:42;17.80;63.70
13521;DHT22;6832;51.186;3.236;2023-03-23T10:19:17;17.80;63.50
13521;DHT22;6832;51.186;3.236;2023-03-23T10:21:57;17.80;63.50
13521;DHT22;6832;51.186;3.236;2023-03-23T10:24:44;17.80;63.50
13521;DHT22;6832;51.186;3.236;2023-03-23T10:27:22;17.80;63.40
13521;DHT22;6832;51.186;3.236;2023-03-23T10:29:59;17.80;63.50
13521;DHT22;6832;51.186;3.236;2023-03-23T10:32:41;17.90;63.60
13521;DHT22;6832;51.186;3.236;2023-03-23T10:35:13;17.80;63.50
13521;DHT22;6832;51.186;3.236;2023-03-23T10:37:46;17.80;63.50
13521;DHT22;6832;51.186;3.236;2023-03-23T10:40:16;17.80;63.50
13521;DHT22;6832;51.186;3.236;2023-03-23T10:42:45;17.90;63.60
13521;DHT22;6832;51.186;3.236;2023-03-23T10:45:17;17.90;63.60
13521;DHT22;6832;51.186;3.236;2023-03-23T10:47:56;17.90;63.80
13521;DHT22;6832;51.186;3.236;2023-03-23T10:50:27;17.90;63.80
13521;DHT22;6832;51.186;3.236;2023-03-23T10:52:57;17.90;63.80
13521;DHT22;6832;51.186;3.236;2023-03-23T10:55:36;18.00;63.80
13521;DHT22;6832;51.186;3.236;2023-03-23T10:58:05;17.90;63.80
13521;DHT22;6832;51.186;3.236;2023-03-23T11:00:44;18.00;63.80
13521;DHT22;6832;51.186;3.236;2023-03-23T11:06:23;18.00;64.00
13521;DHT22;6832;51.186;3.236;2023-03-23T11:08:54;17.90;63.70
13521;DHT22;6832;51.186;3.236;2023-03-23T11:11:27;18.00;63.80
13521;DHT22;6832;51.186;3.236;2023-03-23T11:13:59;18.10;63.90
13521;DHT22;6832;51.186;3.236;2023-03-23T11:16:30;18.10;64.00
13521;DHT22;6832;51.186;3.236;2023-03-23T11:18:58;18.10;63.90
13521;DHT22;6832;51.186;3.236;2023-03-23T11:21:36;18.00;63.80
13521;DHT22;6832;51.186;3.236;2023-03-23T11:24:08;18.10;64.00
13521;DHT22;6832;51.186;3.236;2023-03-23T11:26:36;18.10;63.90
13521;DHT22;6832;51.186;3.236;2023-03-23T11:29:08;18.10;63.90
13521;DHT22;6832;51.186;3.236;2023-03-23T11:31:40;18.20;64.00
13521;DHT22;6832;51.186;3.236;2023-03-23T11:34:14;18.10;63.90
13521;DHT22;6832;51.186;3.236;2023-03-23T11:36:49;18.20;64.10
13521;DHT22;6832;51.186;3.236;2023-03-23T11:39:32;18.20;64.10
13521;DHT22;6832;51.186;3.236;2023-03-23T11:42:02;18.20;63.80
13521;DHT22;6832;51.186;3.236;2023-03-23T11:44:41;18.20;63.90
13521;DHT22;6832;51.186;3.236;2023-03-23T11:47:18;18.20;63.80
13521;DHT22;6832;51.186;3.236;2023-03-23T11:49:52;18.20;63.80
13521;DHT22;6832;51.186;3.236;2023-03-23T11:52:32;18.20;63.80
13521;DHT22;6832;51.186;3.236;2023-03-23T11:55:13;18.30;64.00
13521;DHT22;6832;51.186;3.236;2023-03-23T11:57:44;18.30;64.00
13521;DHT22;6832;51.186;3.236;2023-03-23T12:00:14;18.30;63.90
13521;DHT22;6832;51.186;3.236;2023-03-23T12:03:05;18.30;63.90
13521;DHT22;6832;51.186;3.236;2023-03-23T12:05:45;18.30;63.90
13521;DHT22;6832;51.186;3.236;2023-03-23T12:08:34;18.40;64.10
13521;DHT22;6832;51.186;3.236;2023-03-23T12:11:18;18.30;63.90
13521;DHT22;6832;51.186;3.236;2023-03-23T12:14:09;18.30;64.00
13521;DHT22;6832;51.186;3.236;2023-03-23T12:16:53;18.30;63.90
13521;DHT22;6832;51.186;3.236;2023-03-23T12:19:38;18.30;63.90
13521;DHT22;6832;51.186;3.236;2023-03-23T12:22:18;18.40;64.10
13521;DHT22;6832;51.186;3.236;2023-03-23T12:24:58;18.40;64.00
13521;DHT22;6832;51.186;3.236;2023-03-23T12:27:33;18.40;64.00
13521;DHT22;6832;51.186;3.236;2023-03-23T12:30:11;18.40;64.00
13521;DHT22;6832;51.186;3.236;2023-03-23T12:32:55;18.40;64.00
13521;DHT22;6832;51.186;3.236;2023-03-23T12:35:56;18.40;64.00
13521;DHT22;6832;51.186;3.236;2023-03-23T12:38:46;18.30;64.00
13521;DHT22;6832;51.186;3.236;2023-03-23T12:41:17;18.50;64.10
13521;DHT22;6832;51.186;3.236;2023-03-23T12:43:52;18.50;64.10
13521;DHT22;6832;51.186;3.236;2023-03-23T12:47:03;18.50;64.10
13521;DHT22;6832;51.186;3.236;2023-03-23T12:49:36;18.50;64.20
13521;DHT22;6832;51.186;3.236;2023-03-23T12:52:15;18.50;64.20
13521;DHT22;6832;51.186;3.236;2023-03-23T12:54:49;18.50;64.10
13521;DHT22;6832;51.186;3.236;2023-03-23T12:57:22;18.50;64.10
13521;DHT22;6832;51.186;3.236;2023-03-23T12:59:54;18.50;64.10
13521;DHT22;6832;51.186;3.236;2023-03-23T13:02:25;18.50;64.10
13521;DHT22;6832;51.186;3.236;2023-03-23T13:04:58;18.50;64.10
13521;DHT22;6832;51.186;3.236;2023-03-23T13:07:33;18.60;64.20
13521;DHT22;6832;51.186;3.236;2023-03-23T13:10:05;18.60;64.20
13521;DHT22;6832;51.186;3.236;2023-03-23T13:12:34;18.60;64.20
13521;DHT22;6832;51.186;3.236;2023-03-23T13:15:16;18.60;64.20
13521;DHT22;6832;51.186;3.236;2023-03-23T13:17:51;18.70;64.30
13521;DHT22;6832;51.186;3.236;2023-03-23T13:21:21;18.60;64.30
13521;DHT22;6832;51.186;3.236;2023-03-23T13:24:00;18.60;64.30
13521;DHT22;6832;51.186;3.236;2023-03-23T13:26:30;18.60;65.00
13521;DHT22;6832;51.186;3.236;2023-03-23T13:28:59;18.70;64.40
13521;DHT22;6832;51.186;3.236;2023-03-23T13:34:32;18.60;64.20
13521;DHT22;6832;51.186;3.236;2023-03-23T13:37:03;18.70;64.30
13521;DHT22;6832;51.186;3.236;2023-03-23T13:39:34;18.70;64.30
13521;DHT22;6832;51.186;3.236;2023-03-23T13:42:58;18.70;64.30
13521;DHT22;6832;51.186;3.236;2023-03-23T13:45:24;18.80;64.40
13521;DHT22;6832;51.186;3.236;2023-03-23T13:48:16;18.80;64.40
13521;DHT22;6832;51.186;3.236;2023-03-23T13:50:48;18.90;64.50
13521;DHT22;6832;51.186;3.236;2023-03-23T13:53:23;18.80;64.40
13521;DHT22;6832;51.186;3.236;2023-03-23T13:59:46;18.90;64.50
13521;DHT22;6832;51.186;3.236;2023-03-23T14:02:34;18.90;64.50
13521;DHT22;6832;51.186;3.236;2023-03-23T14:05:28;18.90;64.50
13521;DHT22;6832;51.186;3.236;2023-03-23T14:08:10;18.90;64.50
13521;DHT22;6832;51.186;3.236;2023-03-23T14:10:39;19.00;64.70
13521;DHT22;6832;51.186;3.236;2023-03-23T14:13:32;19.00;64.70
13521;DHT22;6832;51.186;3.236;2023-03-23T14:16:20;19.00;64.70
13521;DHT22;6832;51.186;3.236;2023-03-23T14:18:53;18.90;64.50
13521;DHT22;6832;51.186;3.236;2023-03-23T14:21:35;19.00;64.70
13521;DHT22;6832;51.186;3.236;2023-03-23T14:24:08;18.90;64.50
13521;DHT22;6832;51.186;3.236;2023-03-23T14:26:36;19.00;64.70
13521;DHT22;6832;51.186;3.236;2023-03-23T14:29:04;19.00;65.40
13521;DHT22;6832;51.186;3.236;2023-03-23T14:31:35;19.00;64.70
13521;DHT22;6832;51.186;3.236;2023-03-23T14:34:11;19.00;64.70
13521;DHT22;6832;51.186;3.236;2023-03-23T14:36:39;19.00;64.70
13521;DHT22;6832;51.186;3.236;2023-03-23T14:39:16;19.00;64.70
13521;DHT22;6832;51.186;3.236;2023-03-23T14:41:44;19.00;64.70
13521;DHT22;6832;51.186;3.236;2023-03-23T14:47:05;19.10;64.80
13521;DHT22;6832;51.186;3.236;2023-03-23T14:49:34;19.10;64.80
13521;DHT22;6832;51.186;3.236;2023-03-23T14:52:10;19.10;64.80
13521;DHT22;6832;51.186;3.236;2023-03-23T14:54:38;19.10;64.80
13521;DHT22;6832;51.186;3.236;2023-03-23T14:57:25;19.10;64.80
13521;DHT22;6832;51.186;3.236;2023-03-23T14:59:53;19.10;64.80
13521;DHT22;6832;51.186;3.236;2023-03-23T15:05:11;19.20;64.90
13521;DHT22;6832;51.186;3.236;2023-03-23T15:07:42;19.20;64.90
13521;DHT22;6832;51.186;3.236;2023-03-23T15:10:15;19.20;64.90
13521;DHT22;6832;51.186;3.236;2023-03-23T15:12:44;19.20;64.90
13521;DHT22;6832;51.186;3.236;2023-03-23T15:15:20;19.20;64.90
13521;DHT22;6832;51.186;3.236;2023-03-23T15:17:49;19.20;64.90
13521;DHT22;6832;51.186;3.236;2023-03-23T15:20:29;19.20;64.90
13521;DHT22;6832;51.186;3.236;2023-03-23T15:23:04;19.20;64.90
13521;DHT22;6832;51.186;3.236;2023-03-23T15:25:34;19.30;65.00
13521;DHT22;6832;51.186;3.236;2023-03-23T15:28:15;19.30;65.00
13521;DHT22;6832;51.186;3.236;2023-03-23T15:34:15;19.30;65.00
13521;DHT22;6832;51.186;3.236;2023-03-23T15:36:43;19.30;65.00
13521;DHT22;6832;51.186;3.236;2023-03-23T15:39:12;19.30;64.90
13521;DHT22;6832;51.186;3.236;2023-03-23T15:41:50;19.30;65.00
13521;DHT22;6832;51.186;3.236;2023-03-23T15:44:36;19.30;65.00
13521;DHT22;6832;51.186;3.236;2023-03-23T15:47:18;19.30;64.90
13521;DHT22;6832;51.186;3.236;2023-03-23T15:49:58;19.40;65.10
13521;DHT22;6832;51.186;3.236;2023-03-23T15:52:25;19.40;65.10
13521;DHT22;6832;51.186;3.236;2023-03-23T15:54:52;19.40;65.00
13521;DHT22;6832;51.186;3.236;2023-03-23T15:57:19;19.40;65.00
13521;DHT22;6832;51.186;3.236;2023-03-23T15:59:46;19.40;64.90
13521;DHT22;6832;51.186;3.236;2023-03-23T16:02:28;19.40;65.00
13521;DHT22;6832;51.186;3.236;2023-03-23T16:04:57;19.40;65.00
13521;DHT22;6832;51.186;3.236;2023-03-23T16:07:24;19.40;64.90
13521;DHT22;6832;51.186;3.236;2023-03-23T16:09:51;19.40;65.00
13521;DHT22;6832;51.186;3.236;2023-03-23T16:12:18;19.40;64.90
13521;DHT22;6832;51.186;3.236;2023-03-23T16:14:45;19.50;65.00
13521;DHT22;6832;51.186;3.236;2023-03-23T16:17:17;19.50;65.00
13521;DHT22;6832;51.186;3.236;2023-03-23T16:19:45;19.40;65.00
13521;DHT22;6832;51.186;3.236;2023-03-23T16:22:13;19.50;65.00
13521;DHT22;6832;51.186;3.236;2023-03-23T16:24:44;19.50;65.00
13521;DHT22;6832;51.186;3.236;2023-03-23T16:27:12;19.50;65.00
13521;DHT22;6832;51.186;3.236;2023-03-23T16:29:55;19.50;65.00
13521;DHT22;6832;51.186;3.236;2023-03-23T16:32:28;19.50;65.00
13521;DHT22;6832;51.186;3.236;2023-03-23T16:35:19;19.50;65.00
13521;DHT22;6832;51.186;3.236;2023-03-23T16:38:02;19.50;65.10
13521;DHT22;6832;51.186;3.236;2023-03-23T16:40:29;19.50;64.90
13521;DHT22;6832;51.186;3.236;2023-03-23T16:42:57;19.50;64.90
13521;DHT22;6832;51.186;3.236;2023-03-23T16:45:24;19.50;64.90
13521;DHT22;6832;51.186;3.236;2023-03-23T16:47:51;19.50;64.90
13521;DHT22;6832;51.186;3.236;2023-03-23T16:50:21;19.50;64.90